createdAt,value
2023-01-08T00:00:22.304Z,100386.98
2023-01-08T00:04:44.205Z,100385.21
2023-01-08T00:08:46.136Z,100376.84
2023-01-08T00:12:47.974Z,100372.04
2023-01-08T00:16:51.403Z,100365.34
2023-01-08T00:20:53.420Z,100362.02
2023-01-08T00:24:55.277Z,100360.27
2023-01-08T00:28:57.202Z,100358.40
2023-01-08T00:32:59.146Z,100360.90
2023-01-08T00:37:01.024Z,100362.29
2023-01-08T00:41:04.374Z,100358.83
2023-01-08T00:45:07.147Z,100355.09
2023-01-08T00:49:09.020Z,100354.21
2023-01-08T00:53:11.682Z,100349.96
2023-01-08T00:57:13.590Z,100347.39
2023-01-08T01:01:15.745Z,100348.38
2023-01-08T01:05:19.638Z,100345.52
2023-01-08T01:09:21.501Z,100343.60
2023-01-08T01:13:23.629Z,100341.92
2023-01-08T01:17:25.538Z,100339.11
2023-01-08T01:21:30.241Z,100336.02
2023-01-08T01:25:37.591Z,100337.46
2023-01-08T01:29:39.489Z,100335.02
2023-01-08T01:33:42.021Z,100322.02
2023-01-08T01:37:43.836Z,100318.00
2023-01-08T01:41:46.957Z,100312.41
2023-01-08T01:45:49.370Z,100308.20
2023-01-08T01:49:54.419Z,100309.33
2023-01-08T01:53:56.392Z,100309.02
2023-01-08T01:58:14.792Z,100307.17
2023-01-08T02:02:16.911Z,100300.59
2023-01-08T02:06:32.462Z,100304.95
2023-01-08T02:11:00.472Z,100301.93
2023-01-08T02:15:21.666Z,100295.64
2023-01-08T02:19:46.279Z,100287.60
2023-01-08T02:24:10.592Z,100277.80
2023-01-08T02:28:15.869Z,100274.48
2023-01-08T02:32:17.743Z,100271.70
2023-01-08T02:36:34.065Z,100268.42
2023-01-08T02:40:49.614Z,100266.94
2023-01-08T02:44:55.029Z,100267.48
2023-01-08T02:49:05.751Z,100264.16
2023-01-08T02:53:18.804Z,100265.38
2023-01-08T02:57:21.386Z,100262.34
2023-01-08T03:01:25.603Z,100266.34
2023-01-08T03:05:28.273Z,100265.66
2023-01-08T03:09:31.082Z,100259.16
2023-01-08T03:13:54.321Z,100252.27
2023-01-08T03:18:00.605Z,100258.94
2023-01-08T03:22:07.440Z,100257.21
2023-01-08T03:26:12.367Z,100251.65
2023-01-08T03:30:17.826Z,100241.53
2023-01-08T03:34:21.397Z,100236.20
2023-01-08T03:38:32.517Z,100238.00
2023-01-08T03:42:34.579Z,100236.16
2023-01-08T03:46:43.946Z,100238.34
2023-01-08T03:50:46.352Z,100234.41
2023-01-08T03:54:48.230Z,100237.88
2023-01-08T03:58:50.130Z,100241.84
2023-01-08T04:02:52.039Z,100235.09
2023-01-08T04:06:54.024Z,100228.02
2023-01-08T04:10:55.855Z,100230.20
2023-01-08T04:14:57.708Z,100220.73
2023-01-08T04:18:59.605Z,100213.90
2023-01-08T04:23:01.547Z,100216.52
2023-01-08T04:27:03.548Z,100217.65
2023-01-08T04:31:09.580Z,100218.36
2023-01-08T04:35:11.575Z,100218.20
2023-01-08T04:39:13.639Z,100218.23
2023-01-08T04:43:15.507Z,100219.14
2023-01-08T04:47:17.410Z,100216.23
2023-01-08T04:51:19.330Z,100214.02
2023-01-08T04:55:21.327Z,100210.45
2023-01-08T04:59:23.215Z,100204.48
2023-01-08T05:03:25.361Z,100206.00
2023-01-08T05:07:27.323Z,100202.97
2023-01-08T05:11:29.229Z,100199.05
2023-01-08T05:15:31.184Z,100199.59
2023-01-08T05:19:33.110Z,100203.32
2023-01-08T05:23:34.998Z,100201.63
2023-01-08T05:27:36.917Z,100200.87
2023-01-08T05:31:38.825Z,100200.02
2023-01-08T05:35:40.841Z,100193.91
2023-01-08T05:39:42.768Z,100193.33
2023-01-08T05:43:44.728Z,100187.79
2023-01-08T05:47:46.601Z,100185.98
2023-01-08T05:51:48.480Z,100190.21
2023-01-08T05:55:50.363Z,100194.46
2023-01-08T05:59:52.226Z,100194.00
2023-01-08T06:03:58.573Z,100190.70
2023-01-08T06:08:00.802Z,100191.15
2023-01-08T06:12:02.725Z,100189.43
2023-01-08T06:16:05.015Z,100187.16
2023-01-08T06:20:07.446Z,100190.46
2023-01-08T06:24:09.480Z,100196.10
2023-01-08T06:28:11.567Z,100207.75
2023-01-08T06:32:13.533Z,100207.47
2023-01-08T06:36:15.486Z,100207.28
2023-01-08T06:40:17.851Z,100210.13
2023-01-08T06:44:19.794Z,100204.48
2023-01-08T06:48:21.630Z,100201.86
2023-01-08T06:52:23.533Z,100196.75
2023-01-08T06:56:25.404Z,100191.54
2023-01-08T07:00:27.376Z,100192.77
2023-01-08T07:04:29.345Z,100187.84
2023-01-08T07:08:31.321Z,100179.56
2023-01-08T07:12:33.623Z,100182.84
2023-01-08T07:16:36.044Z,100178.38
2023-01-08T07:20:38.479Z,100176.99
2023-01-08T07:24:40.553Z,100178.92
2023-01-08T07:28:42.965Z,100168.58
2023-01-08T07:32:44.844Z,100154.55
2023-01-08T07:36:46.756Z,100147.02
2023-01-08T07:40:48.759Z,100147.15
2023-01-08T07:44:50.637Z,100140.63
2023-01-08T07:48:52.520Z,100141.55
2023-01-08T07:52:59.079Z,100142.58
2023-01-08T07:57:00.982Z,100145.80
2023-01-08T08:01:03.819Z,100150.58
2023-01-08T08:05:05.939Z,100153.04
2023-01-08T08:09:07.880Z,100155.58
2023-01-08T08:13:11.153Z,100159.10
2023-01-08T08:17:13.262Z,100152.36
2023-01-08T08:21:15.176Z,100144.86
2023-01-08T08:25:17.260Z,100145.11
2023-01-08T08:29:19.903Z,100145.26
2023-01-08T08:33:21.905Z,100130.66
2023-01-08T08:37:23.946Z,100122.00
2023-01-08T08:41:25.983Z,100124.30
2023-01-08T08:45:28.659Z,100115.88
2023-01-08T08:49:30.530Z,100110.66
2023-01-08T08:53:32.421Z,100093.39
2023-01-08T08:57:34.279Z,100085.99
2023-01-08T09:01:36.367Z,100093.88
2023-01-08T09:05:38.388Z,100090.34
2023-01-08T09:09:40.368Z,100079.86
2023-01-08T09:13:42.325Z,100070.28
2023-01-08T09:17:44.307Z,100067.30
2023-01-08T09:21:46.266Z,100065.45
2023-01-08T09:25:48.281Z,100062.77
2023-01-08T09:29:50.321Z,100053.66
2023-01-08T09:33:52.609Z,100044.46
2023-01-08T09:37:55.382Z,100040.81
2023-01-08T09:42:00.658Z,100027.84
2023-01-08T09:46:06.243Z,100036.00
2023-01-08T09:50:13.637Z,100050.82
2023-01-08T09:54:17.316Z,100049.79
2023-01-08T09:58:37.498Z,100046.44
2023-01-08T10:02:40.996Z,100043.20
2023-01-08T10:07:13.786Z,100036.98
2023-01-08T10:11:16.600Z,100031.77
2023-01-08T10:15:22.168Z,100027.67
2023-01-08T10:19:24.448Z,100022.14
2023-01-08T10:23:26.512Z,100014.40
2023-01-08T10:27:29.536Z,100008.70
2023-01-08T10:31:32.495Z,100000.05
2023-01-08T10:35:38.378Z,99994.84
2023-01-08T10:39:46.578Z,99996.21
2023-01-08T10:43:56.730Z,99985.64
2023-01-08T10:48:01.782Z,99983.64
2023-01-08T10:52:03.797Z,99975.52
2023-01-08T10:57:26.629Z,99976.97
2023-01-08T11:01:30.886Z,99970.17
2023-01-08T11:05:42.690Z,99962.58
2023-01-08T11:09:51.136Z,99955.31
2023-01-08T11:14:03.058Z,99949.77
2023-01-08T11:18:24.440Z,99949.32
2023-01-08T11:22:27.436Z,99939.16
2023-01-08T11:26:30.183Z,99934.98
2023-01-08T11:30:36.089Z,99919.31
2023-01-08T11:34:47.365Z,99912.16
2023-01-08T11:38:49.399Z,99915.54
2023-01-08T11:43:17.432Z,99916.23
2023-01-08T11:47:30.964Z,99919.17
2023-01-08T11:51:33.369Z,99915.56
2023-01-08T11:55:58.235Z,99912.31
2023-01-08T12:00:27.046Z,99912.59
2023-01-08T12:04:55.345Z,99907.45
2023-01-08T12:09:18.763Z,99900.41
2023-01-08T12:13:35.584Z,99891.35
2023-01-08T12:17:59.303Z,99874.14
2023-01-08T12:22:07.027Z,99863.55
2023-01-08T12:26:44.580Z,99856.40
2023-01-08T12:31:13.679Z,99859.59
2023-01-08T12:35:33.593Z,99856.73
2023-01-08T12:40:08.412Z,99860.58
2023-01-08T12:44:11.860Z,99863.61
2023-01-08T12:48:21.244Z,99866.98
2023-01-08T12:52:46.462Z,99866.29
2023-01-08T12:57:07.356Z,99854.85
2023-01-08T13:01:27.579Z,99854.66
2023-01-08T13:05:36.120Z,99851.34
2023-01-08T13:09:39.010Z,99858.66
2023-01-08T13:13:44.746Z,99851.58
2023-01-08T13:17:49.271Z,99848.38
2023-01-08T13:21:54.761Z,99845.86
2023-01-08T13:25:59.427Z,99855.73
2023-01-08T13:30:01.607Z,99865.00
2023-01-08T13:34:22.560Z,99859.73
2023-01-08T13:38:24.597Z,99850.73
2023-01-08T13:42:31.069Z,99854.31
2023-01-08T13:46:37.457Z,99853.76
2023-01-08T13:50:45.653Z,99847.16
2023-01-08T13:54:48.004Z,99846.80
2023-01-08T13:58:54.139Z,99841.15
2023-01-08T14:02:56.526Z,99836.17
2023-01-08T14:07:12.260Z,99832.12
2023-01-08T14:11:14.231Z,99830.40
2023-01-08T14:15:27.809Z,99831.08
2023-01-08T14:19:29.938Z,99819.21
2023-01-08T14:23:37.383Z,99816.27
2023-01-08T14:27:39.553Z,99817.14
2023-01-08T14:31:47.511Z,99830.84
2023-01-08T14:35:50.921Z,99842.03
2023-01-08T14:39:54.673Z,99836.85
2023-01-08T14:43:56.980Z,99829.95
2023-01-08T14:48:09.015Z,99829.92
2023-01-08T14:52:14.687Z,99826.25
2023-01-08T14:56:22.235Z,99817.60
2023-01-08T15:00:28.129Z,99813.88
2023-01-08T15:04:31.024Z,99803.67
2023-01-08T15:08:34.693Z,99805.56
2023-01-08T15:12:36.756Z,99804.30
2023-01-08T15:16:42.127Z,99803.16
2023-01-08T15:20:45.339Z,99798.89
2023-01-08T15:24:59.416Z,99794.77
2023-01-08T15:29:05.431Z,99791.98
2023-01-08T15:33:16.964Z,99787.79
2023-01-08T15:37:19.004Z,99788.70
2023-01-08T15:41:41.866Z,99783.36
2023-01-08T15:45:46.999Z,99769.86
2023-01-08T15:49:49.297Z,99760.73
2023-01-08T15:53:51.467Z,99758.47
2023-01-08T15:57:55.603Z,99752.95
2023-01-08T16:01:57.761Z,99753.99
2023-01-08T16:06:00.029Z,99749.07
2023-01-08T16:10:02.337Z,99750.53
2023-01-08T16:14:04.487Z,99753.84
2023-01-08T16:18:06.559Z,99754.53
2023-01-08T16:22:08.652Z,99752.80
2023-01-08T16:26:13.489Z,99745.95
2023-01-08T16:30:16.065Z,99739.20
2023-01-08T16:34:18.091Z,99723.45
2023-01-08T16:38:20.117Z,99712.30
2023-01-08T16:42:22.073Z,99706.29
2023-01-08T16:46:24.057Z,99703.62
2023-01-08T16:50:26.040Z,99704.90
2023-01-08T16:54:27.992Z,99706.02
2023-01-08T16:58:30.894Z,99712.74
2023-01-08T17:02:32.833Z,99713.94
2023-01-08T17:06:36.687Z,99695.63
2023-01-08T17:10:39.319Z,99687.70
2023-01-08T17:14:41.223Z,99674.27
2023-01-08T17:18:43.475Z,99669.27
2023-01-08T17:22:46.446Z,99669.40
2023-01-08T17:26:48.292Z,99660.08
2023-01-08T17:30:53.819Z,99651.54
2023-01-08T17:34:56.556Z,99651.70
2023-01-08T17:39:00.937Z,99648.16
2023-01-08T17:43:03.102Z,99653.73
2023-01-08T17:47:05.016Z,99647.63
2023-01-08T17:51:09.437Z,99646.08
2023-01-08T17:55:11.593Z,99640.53
2023-01-08T17:59:15.265Z,99639.58
2023-01-08T18:03:17.219Z,99630.29
2023-01-08T18:07:19.154Z,99632.70
2023-01-08T18:11:21.786Z,99647.34
2023-01-08T18:15:23.670Z,99650.52
2023-01-08T18:19:25.869Z,99640.63
2023-01-08T18:23:28.359Z,99628.67
2023-01-08T18:27:30.281Z,99635.81
2023-01-08T18:31:32.259Z,99643.71
2023-01-08T18:35:34.242Z,99665.54
2023-01-08T18:39:36.282Z,99678.90
2023-01-08T18:43:38.320Z,99655.73
2023-01-08T18:47:41.191Z,99632.38
2023-01-08T18:51:43.168Z,99611.48
2023-01-08T18:55:45.213Z,99604.73
2023-01-08T18:59:50.456Z,99601.07
2023-01-08T19:03:52.715Z,99613.29
2023-01-08T19:07:54.739Z,99597.71
2023-01-08T19:11:58.147Z,99596.70
2023-01-08T19:16:04.220Z,99591.99
2023-01-08T19:20:06.893Z,99584.38
2023-01-08T19:24:08.886Z,99596.47
2023-01-08T19:28:10.870Z,99586.14
2023-01-08T19:32:12.879Z,99587.60
2023-01-08T19:36:15.428Z,99586.30
2023-01-08T19:40:17.667Z,99591.88
2023-01-08T19:44:19.618Z,99591.87
2023-01-08T19:48:21.993Z,99596.29
2023-01-08T19:52:24.030Z,99598.75
2023-01-08T19:56:26.720Z,99602.34
2023-01-08T20:00:28.978Z,99594.45
2023-01-08T20:04:32.441Z,99607.33
2023-01-08T20:08:34.428Z,99604.48
2023-01-08T20:12:37.684Z,99603.27
2023-01-08T20:16:39.763Z,99594.11
2023-01-08T20:20:41.747Z,99590.23
2023-01-08T20:24:44.176Z,99589.85
2023-01-08T20:28:46.503Z,99597.02
2023-01-08T20:36:56.258Z,99582.52
2023-01-08T20:40:58.518Z,99585.38
2023-01-08T20:45:00.557Z,99584.20
2023-01-08T20:49:10.115Z,99582.75
2023-01-08T20:53:15.420Z,99572.20
2023-01-08T20:57:17.629Z,99567.57
2023-01-08T21:01:22.537Z,99556.95
2023-01-08T21:05:25.972Z,99554.74
2023-01-08T21:09:28.028Z,99549.90
2023-01-08T21:13:33.807Z,99546.42
2023-01-08T21:17:35.781Z,99539.30
2023-01-08T21:21:40.760Z,99537.25
2023-01-08T21:25:43.109Z,99519.44
2023-01-08T21:29:45.276Z,99512.61
2023-01-08T21:33:48.801Z,99508.52
2023-01-08T21:37:50.930Z,99504.67
2023-01-08T21:42:11.627Z,99495.37
2023-01-08T21:46:14.388Z,99487.94
2023-01-08T21:50:16.582Z,99485.83
2023-01-08T21:54:18.489Z,99480.09
2023-01-08T21:58:20.981Z,99481.52
2023-01-08T22:02:23.999Z,99479.30
2023-01-08T22:06:26.507Z,99475.55
2023-01-08T22:10:28.487Z,99468.46
2023-01-08T22:14:30.440Z,99455.46
2023-01-08T22:18:32.621Z,99449.64
2023-01-08T22:22:35.119Z,99450.56
2023-01-08T22:26:37.136Z,99439.59
2023-01-08T22:30:40.335Z,99432.41
2023-01-08T22:34:42.290Z,99421.89
2023-01-08T22:38:44.194Z,99415.25
2023-01-08T22:42:46.198Z,99417.39
2023-01-08T22:46:48.224Z,99415.35
2023-01-08T22:50:51.637Z,99414.33
2023-01-08T22:54:55.438Z,99419.92
2023-01-08T22:58:57.863Z,99413.14
2023-01-08T23:03:00.157Z,99416.60
2023-01-08T23:07:02.362Z,99412.41
2023-01-08T23:11:04.393Z,99400.97
2023-01-08T23:15:07.332Z,99400.87
2023-01-08T23:19:09.573Z,99398.29
2023-01-08T23:23:11.574Z,99385.99
2023-01-08T23:27:13.612Z,99377.62
2023-01-08T23:31:19.155Z,99376.05
2023-01-08T23:35:21.254Z,99376.25
2023-01-08T23:39:26.094Z,99377.36
2023-01-08T23:43:28.017Z,99367.82
2023-01-08T23:47:29.946Z,99357.56
2023-01-08T23:51:31.844Z,99351.27
2023-01-08T23:55:34.391Z,99342.07
2023-01-08T23:59:36.306Z,99335.47
